createdAt,value
2018-08-12T00:04:55.006Z,4.17
2018-08-12T00:07:23.486Z,4.83
2018-08-12T00:09:51.896Z,6.33
2018-08-12T00:12:20.399Z,5.87
2018-08-12T00:14:48.833Z,5.63
2018-08-12T00:17:17.260Z,5.13
2018-08-12T00:19:45.694Z,4.67
2018-08-12T00:22:14.151Z,7.03
2018-08-12T00:24:42.604Z,4.27
2018-08-12T00:27:11.012Z,5.63
2018-08-12T00:29:39.445Z,4.20
2018-08-12T00:32:07.875Z,6.77
2018-08-12T00:34:36.403Z,4.50
2018-08-12T00:37:05.711Z,3.93
2018-08-12T00:39:34.592Z,4.77
2018-08-12T00:42:03.024Z,3.97
2018-08-12T00:44:31.622Z,5.87
2018-08-12T00:47:00.072Z,5.77
2018-08-12T00:49:28.559Z,4.93
2018-08-12T00:51:57.021Z,6.23
2018-08-12T00:54:25.445Z,4.60
2018-08-12T00:56:54.015Z,4.53
2018-08-12T00:59:22.417Z,5.17
2018-08-12T01:01:50.972Z,4.47
2018-08-12T01:04:19.404Z,4.83
2018-08-12T01:06:47.883Z,5.83
2018-08-12T01:09:16.354Z,4.90
2018-08-12T01:11:44.817Z,4.50
2018-08-12T01:14:13.280Z,4.63
2018-08-12T01:16:41.723Z,5.80
2018-08-12T01:19:10.188Z,4.47
2018-08-12T01:21:39.664Z,6.73
2018-08-12T01:24:08.111Z,5.23
2018-08-12T01:26:36.536Z,5.27
2018-08-12T01:29:05.429Z,6.20
2018-08-12T01:31:33.900Z,5.07
2018-08-12T01:34:02.342Z,5.00
2018-08-12T01:36:30.779Z,5.03
2018-08-12T01:38:59.337Z,5.23
2018-08-12T01:41:27.784Z,5.13
2018-08-12T01:43:56.211Z,5.40
2018-08-12T01:46:24.690Z,6.00
2018-08-12T01:48:53.268Z,4.57
2018-08-12T01:51:21.687Z,5.07
2018-08-12T01:53:50.127Z,4.80
2018-08-12T01:56:18.599Z,4.30
2018-08-12T01:58:47.023Z,5.20
2018-08-12T02:01:15.509Z,7.57
2018-08-12T02:03:43.940Z,6.07
2018-08-12T02:06:12.391Z,5.53
2018-08-12T02:08:40.854Z,5.07
2018-08-12T02:12:12.855Z,4.90
2018-08-12T02:14:41.277Z,5.53
2018-08-12T02:17:10.065Z,4.63
2018-08-12T02:19:38.532Z,5.40
2018-08-12T02:22:07.064Z,4.60
2018-08-12T02:24:35.573Z,4.63
2018-08-12T02:27:03.985Z,6.53
2018-08-12T02:29:32.429Z,5.37
2018-08-12T02:32:00.875Z,5.03
2018-08-12T02:34:29.317Z,5.00
2018-08-12T02:36:57.722Z,4.57
2018-08-12T02:39:26.152Z,5.47
2018-08-12T02:41:54.558Z,4.80
2018-08-12T02:44:22.977Z,4.97
2018-08-12T02:46:51.413Z,4.77
2018-08-12T02:49:19.838Z,6.20
2018-08-12T02:51:48.373Z,4.77
2018-08-12T02:54:16.776Z,5.20
2018-08-12T02:56:45.212Z,4.60
2018-08-12T02:59:13.656Z,4.40
2018-08-12T03:01:42.127Z,4.87
2018-08-12T03:04:10.683Z,4.53
2018-08-12T03:06:39.121Z,4.50
2018-08-12T03:09:10.356Z,5.43
2018-08-12T03:11:38.826Z,5.40
2018-08-12T03:14:07.853Z,4.60
2018-08-12T03:16:36.311Z,4.70
2018-08-12T03:19:04.813Z,4.73
2018-08-12T03:21:33.231Z,5.30
2018-08-12T03:24:01.673Z,4.80
2018-08-12T03:26:30.103Z,4.47
2018-08-12T03:28:58.536Z,5.03
2018-08-12T03:31:26.961Z,4.83
2018-08-12T03:33:55.635Z,5.50
2018-08-12T03:36:24.173Z,4.23
2018-08-12T03:38:52.767Z,4.13
2018-08-12T03:41:21.213Z,4.20
2018-08-12T03:43:49.897Z,4.33
2018-08-12T03:46:18.358Z,4.83
2018-08-12T03:48:46.849Z,4.50
2018-08-12T03:51:15.235Z,4.67
2018-08-12T03:53:43.647Z,4.63
2018-08-12T03:56:12.123Z,4.97
2018-08-12T03:58:40.557Z,4.80
2018-08-12T04:01:08.992Z,4.00
2018-08-12T04:03:37.445Z,4.80
2018-08-12T04:06:05.884Z,5.00
2018-08-12T04:08:34.378Z,4.60
2018-08-12T04:11:02.807Z,5.07
2018-08-12T04:13:31.254Z,5.23
2018-08-12T04:15:59.771Z,4.50
2018-08-12T04:18:28.212Z,4.17
2018-08-12T04:20:56.632Z,4.50
2018-08-12T04:23:25.084Z,4.63
2018-08-12T04:25:53.527Z,4.97
2018-08-12T04:28:21.974Z,4.47
2018-08-12T04:30:50.449Z,5.20
2018-08-12T04:33:18.878Z,5.60
2018-08-12T04:35:47.296Z,5.20
2018-08-12T04:38:15.745Z,6.43
2018-08-12T04:40:44.161Z,4.53
2018-08-12T04:43:12.578Z,5.43
2018-08-12T04:45:41.012Z,4.83
2018-08-12T04:48:09.416Z,5.70
2018-08-12T04:50:37.852Z,6.03
2018-08-12T04:53:06.300Z,5.47
2018-08-12T04:55:34.721Z,5.67
2018-08-12T04:58:03.555Z,5.50
2018-08-12T05:00:31.971Z,5.70
2018-08-12T05:03:00.457Z,5.00
2018-08-12T05:05:28.911Z,5.60
2018-08-12T05:07:57.334Z,5.73
2018-08-12T05:10:25.759Z,6.33
2018-08-12T05:12:54.230Z,6.37
2018-08-12T05:15:22.660Z,6.13
2018-08-12T05:17:51.146Z,6.53
2018-08-12T05:20:19.597Z,5.67
2018-08-12T05:22:48.012Z,6.70
2018-08-12T05:25:16.535Z,6.10
2018-08-12T05:27:44.930Z,6.57
2018-08-12T05:30:13.371Z,7.03
2018-08-12T05:32:42.487Z,6.80
2018-08-12T05:35:12.865Z,6.37
2018-08-12T05:37:41.283Z,8.20
2018-08-12T05:40:11.181Z,6.80
2018-08-12T05:42:39.598Z,8.93
2018-08-12T05:45:09.151Z,8.00
2018-08-12T05:47:37.937Z,8.67
2018-08-12T05:50:07.055Z,8.63
2018-08-12T05:52:35.505Z,9.27
2018-08-12T05:55:04.247Z,9.70
2018-08-12T05:57:32.708Z,9.80
2018-08-12T06:00:01.442Z,8.93
2018-08-12T06:02:30.962Z,9.87
2018-08-12T06:04:59.797Z,11.47
2018-08-12T06:07:28.314Z,9.20
2018-08-12T06:09:56.793Z,10.37
2018-08-12T06:12:25.748Z,10.00
2018-08-12T06:14:54.220Z,10.20
2018-08-12T06:17:22.776Z,10.57
2018-08-12T06:19:51.299Z,11.17
2018-08-12T06:22:19.785Z,10.10
2018-08-12T06:24:48.266Z,10.13
2018-08-12T06:27:16.737Z,9.83
2018-08-12T06:29:45.305Z,11.27
2018-08-12T06:32:13.808Z,10.90
2018-08-12T06:34:42.320Z,9.33
2018-08-12T06:37:10.864Z,9.77
2018-08-12T06:39:39.327Z,10.87
2018-08-12T06:42:07.931Z,8.93
2018-08-12T06:44:36.511Z,8.60
2018-08-12T06:47:05.092Z,8.47
2018-08-12T06:49:33.532Z,10.13
2018-08-12T06:52:02.072Z,9.07
2018-08-12T06:54:30.557Z,9.57
2018-08-12T06:56:59.107Z,9.03
2018-08-12T06:59:27.644Z,8.20
2018-08-12T07:01:56.256Z,8.20
2018-08-12T07:04:24.805Z,7.73
2018-08-12T07:06:53.325Z,7.03
2018-08-12T07:09:21.845Z,7.20
2018-08-12T07:11:50.356Z,7.60
2018-08-12T07:14:18.870Z,6.10
2018-08-12T07:16:47.288Z,5.30
2018-08-12T07:19:15.763Z,6.20
2018-08-12T07:21:44.240Z,10.57
2018-08-12T07:24:12.663Z,5.37
2018-08-12T07:26:41.157Z,5.47
2018-08-12T07:29:09.929Z,5.80
2018-08-12T07:31:38.498Z,6.13
2018-08-12T07:34:07.049Z,4.33
2018-08-12T07:36:35.601Z,3.80
2018-08-12T07:39:05.696Z,5.00
2018-08-12T07:41:34.205Z,4.07
2018-08-12T07:44:02.776Z,5.43
2018-08-12T07:46:31.666Z,7.93
2018-08-12T07:49:00.240Z,5.57
2018-08-12T07:51:28.771Z,3.27
2018-08-12T07:53:57.320Z,4.77
2018-08-12T07:56:25.908Z,5.47
2018-08-12T07:58:54.488Z,6.03
2018-08-12T08:01:23.019Z,8.07
2018-08-12T08:03:51.668Z,4.23
2018-08-12T08:06:20.211Z,5.63
2018-08-12T08:08:48.732Z,3.20
2018-08-12T08:11:17.207Z,7.10
2018-08-12T08:13:45.660Z,4.40
2018-08-12T08:16:14.818Z,3.97
2018-08-12T08:18:43.381Z,5.00
2018-08-12T08:21:11.869Z,3.07
2018-08-12T08:23:40.351Z,5.97
2018-08-12T08:26:08.872Z,5.13
2018-08-12T08:28:37.536Z,4.43
2018-08-12T08:31:06.286Z,4.50
2018-08-12T08:33:34.832Z,5.67
2018-08-12T08:36:03.564Z,4.93
2018-08-12T08:38:32.093Z,3.70
2018-08-12T08:41:00.686Z,5.60
2018-08-12T08:43:29.222Z,5.30
2018-08-12T08:45:57.794Z,6.33
2018-08-12T08:48:26.336Z,5.17
2018-08-12T08:50:54.785Z,3.77
2018-08-12T08:53:23.260Z,4.37
2018-08-12T08:55:51.882Z,5.20
2018-08-12T08:58:20.293Z,5.17
2018-08-12T09:00:48.755Z,5.37
2018-08-12T09:03:17.268Z,4.50
2018-08-12T09:05:45.892Z,4.40
2018-08-12T09:08:15.115Z,6.57
2018-08-12T09:10:43.423Z,5.83
2018-08-12T09:13:11.911Z,6.27
2018-08-12T09:15:40.593Z,6.03
2018-08-12T09:18:09.136Z,6.57
2018-08-12T09:20:37.593Z,6.30
2018-08-12T09:23:06.082Z,5.87
2018-08-12T09:25:34.620Z,5.53
2018-08-12T09:28:03.067Z,6.13
2018-08-12T09:30:31.516Z,5.17
2018-08-12T09:33:00.099Z,4.03
2018-08-12T09:35:28.558Z,7.83
2018-08-12T09:37:57.062Z,6.27
2018-08-12T09:40:25.685Z,4.23
2018-08-12T09:42:54.155Z,4.57
2018-08-12T09:45:22.772Z,4.60
2018-08-12T09:47:51.298Z,5.67
2018-08-12T09:50:20.488Z,3.60
2018-08-12T09:52:50.203Z,5.63
2018-08-12T09:55:19.443Z,4.17
2018-08-12T09:57:47.931Z,3.63
2018-08-12T10:00:22.766Z,9.37
2018-08-12T10:02:52.724Z,4.47
2018-08-12T10:05:21.385Z,5.47
2018-08-12T10:07:49.879Z,3.77
2018-08-12T10:10:18.505Z,4.43
2018-08-12T10:12:47.249Z,6.13
2018-08-12T10:15:16.344Z,4.77
2018-08-12T10:17:48.005Z,5.17
2018-08-12T10:20:16.560Z,4.77
2018-08-12T10:22:45.187Z,4.80
2018-08-12T10:25:13.717Z,6.00
2018-08-12T10:27:42.196Z,4.23
2018-08-12T10:30:12.536Z,5.03
2018-08-12T10:32:41.012Z,8.77
2018-08-12T10:35:11.941Z,3.50
2018-08-12T10:37:40.807Z,3.83
2018-08-12T10:40:17.886Z,4.27
2018-08-12T10:42:47.364Z,5.73
2018-08-12T10:45:15.920Z,5.07
2018-08-12T10:47:44.663Z,5.90
2018-08-12T10:50:15.548Z,5.23
2018-08-12T10:52:45.054Z,5.50
2018-08-12T10:55:14.792Z,5.27
2018-08-12T10:57:43.318Z,6.43
2018-08-12T11:00:15.999Z,5.33
2018-08-12T11:02:45.028Z,4.87
2018-08-12T11:05:14.349Z,4.90
2018-08-12T11:07:43.089Z,6.37
2018-08-12T11:10:12.408Z,6.57
2018-08-12T11:12:41.078Z,5.53
2018-08-12T11:15:10.212Z,4.77
2018-08-12T11:17:39.232Z,4.20
2018-08-12T11:20:08.196Z,5.97
2018-08-12T11:22:36.740Z,5.77
2018-08-12T11:25:05.797Z,5.23
2018-08-12T11:27:34.764Z,4.67
2018-08-12T11:30:03.328Z,4.50
2018-08-12T11:32:31.752Z,5.07
2018-08-12T11:35:00.268Z,4.67
2018-08-12T11:37:28.721Z,7.10
2018-08-12T11:39:57.180Z,4.73
2018-08-12T11:42:25.717Z,7.70
2018-08-12T11:44:54.207Z,5.10
2018-08-12T11:47:22.739Z,6.63
2018-08-12T11:49:51.244Z,7.57
2018-08-12T11:52:19.728Z,7.97
2018-08-12T11:54:48.234Z,6.80
2018-08-12T11:57:16.721Z,7.37
2018-08-12T11:59:45.229Z,5.43
2018-08-12T12:02:13.846Z,4.90
2018-08-12T12:04:42.213Z,3.77
2018-08-12T12:07:10.773Z,4.00
2018-08-12T12:09:39.276Z,3.37
2018-08-12T12:12:07.784Z,3.83
2018-08-12T12:14:36.291Z,3.53
2018-08-12T12:17:04.902Z,7.60
2018-08-12T12:19:33.531Z,3.93
2018-08-12T12:22:01.992Z,4.47
2018-08-12T12:24:30.458Z,5.43
2018-08-12T12:26:59.047Z,4.50
2018-08-12T12:29:27.543Z,6.20
2018-08-12T12:31:56.441Z,5.43
2018-08-12T12:34:24.953Z,3.47
2018-08-12T12:36:53.384Z,8.73
2018-08-12T12:39:21.919Z,5.33
2018-08-12T12:41:50.362Z,6.00
2018-08-12T12:44:18.804Z,3.63
2018-08-12T12:46:47.291Z,3.17
2018-08-12T12:49:15.868Z,4.87
2018-08-12T12:51:44.304Z,3.53
2018-08-12T12:54:12.753Z,5.83
2018-08-12T12:56:41.447Z,4.83
2018-08-12T12:59:09.916Z,5.77
2018-08-12T13:01:38.385Z,4.03
2018-08-12T13:04:07.287Z,4.40
2018-08-12T13:06:35.877Z,5.37
2018-08-12T13:09:06.495Z,6.50
2018-08-12T13:11:35.317Z,7.03
2018-08-12T13:14:04.389Z,3.60
2018-08-12T13:16:32.885Z,5.13
2018-08-12T13:19:01.373Z,3.70
2018-08-12T13:21:29.828Z,3.10
2018-08-12T13:23:58.363Z,5.10
2018-08-12T13:26:26.891Z,5.00
2018-08-12T13:28:55.444Z,5.03
2018-08-12T13:31:23.967Z,3.30
2018-08-12T13:33:52.595Z,4.33
2018-08-12T13:36:22.366Z,4.80
2018-08-12T13:38:50.963Z,4.72
2018-08-12T13:41:19.469Z,3.87
2018-08-12T13:43:48.033Z,4.78
2018-08-12T13:46:16.487Z,3.37
2018-08-12T13:48:45.442Z,4.35
2018-08-12T13:51:13.881Z,2.47
2018-08-12T13:53:42.303Z,6.53
2018-08-12T13:56:10.868Z,3.52
2018-08-12T13:58:39.580Z,5.60
2018-08-12T14:01:16.537Z,3.60
2018-08-12T14:03:45.126Z,3.37
2018-08-12T14:06:13.669Z,2.40
2018-08-12T14:08:42.153Z,3.15
2018-08-12T14:11:10.726Z,4.10
2018-08-12T14:13:39.302Z,4.15
2018-08-12T14:16:07.788Z,5.15
2018-08-12T14:18:36.344Z,5.22
2018-08-12T14:21:05.017Z,3.80
2018-08-12T14:23:34.341Z,3.98
2018-08-12T14:26:03.608Z,3.37
2018-08-12T14:28:32.236Z,3.75
2018-08-12T14:31:10.713Z,5.08
2018-08-12T14:33:39.654Z,6.25
2018-08-12T14:36:08.152Z,3.00
2018-08-12T14:38:36.617Z,4.55
2018-08-12T14:41:05.117Z,3.60
2018-08-12T14:43:33.705Z,3.22
2018-08-12T14:46:02.152Z,3.50
2018-08-12T14:48:30.637Z,2.95
2018-08-12T14:50:59.073Z,2.90
2018-08-12T14:53:27.911Z,2.40
2018-08-12T14:55:56.338Z,2.17
2018-08-12T14:58:24.769Z,4.17
2018-08-12T15:00:53.232Z,5.40
2018-08-12T15:03:21.669Z,6.05
2018-08-12T15:05:50.200Z,2.10
2018-08-12T15:08:18.642Z,2.72
2018-08-12T15:10:47.097Z,3.25
2018-08-12T15:13:15.540Z,2.87
2018-08-12T15:15:44.012Z,2.05
2018-08-12T15:18:12.448Z,2.20
2018-08-12T15:20:40.892Z,1.85
2018-08-12T15:23:09.332Z,3.30
2018-08-12T15:25:37.784Z,2.08
2018-08-12T15:28:06.239Z,2.27
2018-08-12T15:30:34.678Z,3.05
2018-08-12T15:33:03.122Z,2.42
2018-08-12T15:35:31.524Z,3.75
2018-08-12T15:37:59.968Z,2.15
2018-08-12T15:40:28.403Z,2.25
2018-08-12T15:42:56.849Z,2.92
2018-08-12T15:45:25.292Z,2.87
2018-08-12T15:47:53.736Z,3.15
2018-08-12T15:50:22.184Z,1.95
2018-08-12T15:52:50.601Z,4.03
2018-08-12T15:55:19.025Z,2.70
2018-08-12T15:57:47.436Z,1.75
2018-08-12T16:00:17.986Z,2.25
2018-08-12T16:02:46.664Z,2.60
2018-08-12T16:05:15.165Z,3.17
2018-08-12T16:07:44.362Z,3.15
2018-08-12T16:10:15.254Z,2.70
2018-08-12T16:12:43.788Z,3.55
2018-08-12T16:15:13.033Z,3.80
2018-08-12T16:17:42.169Z,3.10
2018-08-12T16:20:11.225Z,2.70
2018-08-12T16:22:39.661Z,2.12
2018-08-12T16:25:10.900Z,2.02
2018-08-12T16:27:39.452Z,2.33
2018-08-12T16:30:09.225Z,2.30
2018-08-12T16:32:44.097Z,2.08
2018-08-12T16:35:13.799Z,1.87
2018-08-12T16:37:43.079Z,3.08
2018-08-12T16:40:13.328Z,2.55
2018-08-12T16:42:41.884Z,3.20
2018-08-12T16:45:12.012Z,3.80
2018-08-12T16:47:40.448Z,4.47
2018-08-12T16:50:09.888Z,2.67
2018-08-12T16:52:38.691Z,2.58
2018-08-12T16:55:09.328Z,3.55
2018-08-12T16:57:37.799Z,2.33
2018-08-12T17:00:11.712Z,2.12
2018-08-12T17:02:40.168Z,2.42
2018-08-12T17:05:11.372Z,3.15
2018-08-12T17:07:40.009Z,2.37
2018-08-12T17:10:09.653Z,3.27
2018-08-12T17:12:38.147Z,2.42
2018-08-12T17:15:08.183Z,3.10
2018-08-12T17:17:36.686Z,2.80
2018-08-12T17:20:07.282Z,3.02
2018-08-12T17:22:35.849Z,2.20
2018-08-12T17:25:05.323Z,2.58
2018-08-12T17:27:34.068Z,5.62
2018-08-12T17:30:02.754Z,3.80
2018-08-12T17:32:32.213Z,3.12
2018-08-12T17:35:01.220Z,4.47
2018-08-12T17:37:30.522Z,4.40
2018-08-12T17:39:59.033Z,2.92
2018-08-12T17:42:27.903Z,6.28
2018-08-12T17:44:56.363Z,3.47
2018-08-12T17:47:24.835Z,5.03
2018-08-12T17:49:53.368Z,3.87
2018-08-12T17:52:21.826Z,2.50
2018-08-12T17:54:50.360Z,3.58
2018-08-12T17:57:18.799Z,2.50
2018-08-12T17:59:47.224Z,2.95
2018-08-12T18:02:15.752Z,3.30
2018-08-12T18:04:44.288Z,2.72
2018-08-12T18:07:12.841Z,2.50
2018-08-12T18:09:41.316Z,2.37
2018-08-12T18:12:09.872Z,2.10
2018-08-12T18:14:38.371Z,2.40
2018-08-12T18:17:06.910Z,2.50
2018-08-12T18:19:35.695Z,3.13
2018-08-12T18:22:04.284Z,2.17
2018-08-12T18:24:32.744Z,1.95
2018-08-12T18:27:01.415Z,1.87
2018-08-12T18:29:29.851Z,1.70
2018-08-12T18:31:58.340Z,2.20
2018-08-12T18:34:26.779Z,1.90
2018-08-12T18:36:55.321Z,2.27
2018-08-12T18:39:23.978Z,2.00
2018-08-12T18:41:52.546Z,2.53
2018-08-12T18:44:21.001Z,3.43
2018-08-12T18:46:49.454Z,4.20
2018-08-12T18:49:18.029Z,3.40
2018-08-12T18:51:46.510Z,2.20
2018-08-12T18:54:14.990Z,2.30
2018-08-12T18:56:43.509Z,2.30
2018-08-12T18:59:11.972Z,2.40
2018-08-12T19:01:40.540Z,2.73
2018-08-12T19:04:09.052Z,2.63
2018-08-12T19:06:37.520Z,3.47
2018-08-12T19:09:09.011Z,3.17
2018-08-12T19:11:37.551Z,3.43
2018-08-12T19:14:06.393Z,2.20
2018-08-12T19:16:34.895Z,2.30
2018-08-12T19:19:03.672Z,2.40
2018-08-12T19:21:32.448Z,2.30
2018-08-12T19:24:00.975Z,3.07
2018-08-12T19:26:29.536Z,2.67
2018-08-12T19:28:58.333Z,2.00
2018-08-12T19:31:26.839Z,1.93
2018-08-12T19:33:55.280Z,2.30
2018-08-12T19:36:23.795Z,2.37
2018-08-12T19:38:52.451Z,2.40
2018-08-12T19:41:21.054Z,2.90
2018-08-12T19:43:49.563Z,2.10
2018-08-12T19:46:18.117Z,2.40
2018-08-12T19:48:46.588Z,2.40
2018-08-12T19:51:15.065Z,2.60
2018-08-12T19:53:43.539Z,2.83
2018-08-12T19:56:11.996Z,2.50
2018-08-12T19:58:40.568Z,2.50
2018-08-12T20:01:09.084Z,2.90
2018-08-12T20:03:37.568Z,2.43
2018-08-12T20:06:06.140Z,2.80
2018-08-12T20:08:34.608Z,2.63
2018-08-12T20:11:03.096Z,2.40
2018-08-12T20:13:31.624Z,2.50
2018-08-12T20:16:00.163Z,2.43
2018-08-12T20:18:28.698Z,2.40
2018-08-12T20:20:57.253Z,2.77
2018-08-12T20:23:25.748Z,2.60
2018-08-12T20:25:54.303Z,2.50
2018-08-12T20:28:22.858Z,2.40
2018-08-12T20:30:51.348Z,3.40
2018-08-12T20:33:19.869Z,2.40
2018-08-12T20:35:48.499Z,2.50
2018-08-12T20:38:17.051Z,2.37
2018-08-12T20:40:45.512Z,4.13
2018-08-12T20:43:13.979Z,2.13
2018-08-12T20:45:42.528Z,2.30
2018-08-12T20:48:11.039Z,2.80
2018-08-12T20:50:39.537Z,2.67
2018-08-12T20:53:08.279Z,2.43
2018-08-12T20:55:36.735Z,2.20
2018-08-12T20:58:05.292Z,2.47
2018-08-12T21:00:34.384Z,2.50
2018-08-12T21:03:02.848Z,2.50
2018-08-12T21:05:31.325Z,2.20
2018-08-12T21:07:59.773Z,2.80
2018-08-12T21:10:28.818Z,2.20
2018-08-12T21:12:57.300Z,2.60
2018-08-12T21:15:25.815Z,2.10
2018-08-12T21:17:54.292Z,2.67
2018-08-12T21:20:22.916Z,3.57
2018-08-12T21:22:51.484Z,2.17
2018-08-12T21:25:19.964Z,2.40
2018-08-12T21:27:48.478Z,2.40
2018-08-12T21:30:16.996Z,2.60
2018-08-12T21:32:45.612Z,2.20
2018-08-12T21:35:14.277Z,2.50
2018-08-12T21:37:42.783Z,2.17
2018-08-12T21:40:11.237Z,3.33
2018-08-12T21:42:39.942Z,2.30
2018-08-12T21:45:08.438Z,2.20
2018-08-12T21:47:36.940Z,2.30
2018-08-12T21:50:05.516Z,2.40
2018-08-12T21:52:34.024Z,2.20
2018-08-12T21:55:02.528Z,3.97
2018-08-12T21:57:31.017Z,2.73
2018-08-12T21:59:59.515Z,2.83
2018-08-12T22:02:28.020Z,2.67
2018-08-12T22:04:56.493Z,2.60
2018-08-12T22:07:24.985Z,2.37
2018-08-12T22:09:53.557Z,2.70
2018-08-12T22:12:22.032Z,2.67
2018-08-12T22:14:50.684Z,3.80
2018-08-12T22:17:19.184Z,2.90
2018-08-12T22:19:47.740Z,3.50
2018-08-12T22:22:16.679Z,2.73
2018-08-12T22:24:45.180Z,3.10
2018-08-12T22:27:13.665Z,2.93
2018-08-12T22:29:42.202Z,2.90
2018-08-12T22:32:10.711Z,2.47
2018-08-12T22:34:39.214Z,2.90
2018-08-12T22:37:07.724Z,3.20
2018-08-12T22:39:36.277Z,2.83
2018-08-12T22:42:04.788Z,3.00
2018-08-12T22:44:33.300Z,2.93
2018-08-12T22:47:01.795Z,2.80
2018-08-12T22:49:30.340Z,2.80
2018-08-12T22:51:58.852Z,3.77
2018-08-12T22:54:27.351Z,2.80
2018-08-12T22:56:55.849Z,2.73
2018-08-12T22:59:24.361Z,2.67
2018-08-12T23:01:52.880Z,2.80
2018-08-12T23:04:21.426Z,3.03
2018-08-12T23:06:50.046Z,3.10
2018-08-12T23:09:18.519Z,3.10
2018-08-12T23:11:47.040Z,3.33
2018-08-12T23:14:15.496Z,3.10
2018-08-12T23:17:01.905Z,2.90
2018-08-12T23:19:30.627Z,2.90
2018-08-12T23:21:59.290Z,2.97
2018-08-12T23:24:27.751Z,2.77
2018-08-12T23:26:56.285Z,3.50
2018-08-12T23:29:24.820Z,3.10
2018-08-12T23:31:53.385Z,2.97
2018-08-12T23:34:21.865Z,3.70
2018-08-12T23:36:50.434Z,2.73
2018-08-12T23:39:18.895Z,3.00
2018-08-12T23:41:47.427Z,3.43
2018-08-12T23:44:15.927Z,2.70
2018-08-12T23:46:44.613Z,2.90
2018-08-12T23:49:13.120Z,3.10
2018-08-12T23:51:41.596Z,2.97
2018-08-12T23:54:10.104Z,3.73
2018-08-12T23:56:38.583Z,3.27
2018-08-12T23:59:07.105Z,3.20
